x

Lake Simcoe (45151) Wave Buoy

12:00pm - Sun 21st Sep 2014 All times are CDT. -5 hours from GMT.

  • Sig Wave height 1.3ft
  • Peak Period 2s
  • Wind
    18mph, 22mph gusts
  • Sea Temp 63°f
  • Air Temp 66°f
  • Sea Pressure 999.9mb
  • Lake Simcoe
  • Lake Simcoe

More Historic Weather Station data

Upgrade to MSW Pro to gain access to the past 30 days of data for over 8000 Wavebouys and Weather Stations around the globe.

Join Pro

Comparision Forecast

View Surf forecast
   
Sun 09/21 12:00pm 1.3ft 2s 18 22 mph 999.9mb 63f 66f
11:00am 1ft 3s 16 22 mph 999mb 63f 66f
10:00am 1ft 2s 11 13 mph 999mb 63f 64f
9:00am 1ft 3s 13 18 mph 999.6mb 63f 62f
8:00am 1ft 2s 16 18 mph 1001.2mb 63f 63f
7:00am 0.7ft 2s 11 13 mph 1002mb 63f 63f
6:00am 0.7ft 2s 11 13 mph 1003.2mb 63f 63f
5:00am 0.7ft 2s 11 13 mph 1003.7mb 63f 64f
4:00am 0.7ft 3s 9 11 mph 1003.7mb 63f 63f
3:00am 1ft 3s 7
mph
1004.7mb 63f 63f
2:00am 1.3ft 3s 16 20 mph 1005mb 63f 63f
1:00am 1.3ft 3s 11 16 mph 1005.5mb 63f 64f
12:00am 2ft 4s 16 20 mph 1005.6mb 63f 64f
Sat 09/20 11:00pm 2ft 3s 18 22 mph 1006.3mb 63f 65f
10:00pm 1.3ft 3s 18
mph
1006.3mb 63f 67f
9:00pm 1ft 2s 11 13 mph 1007mb 63f 66f
8:00pm 0.7ft 2s 11 13 mph 1007.3mb 63f 66f
7:00pm 0.7ft 2s 13 16 mph 1008mb 63f 66f
6:00pm 0.7ft 2s 9
mph
1008.3mb 63f 65f
5:00pm 0.7ft 2s 16 18 mph 1008.5mb 63f 67f
4:00pm 0.7ft 3s 7 9 mph 1008.8mb 63f 65f
3:00pm 1ft 3s 4 7 mph 1009.8mb 63f 64f
2:00pm 1.6ft 3s 9 13 mph 1009.9mb 63f 65f
1:00pm 1.6ft 3s 11 13 mph 1010.7mb 63f 67f
12:00pm 2ft 4s 13 16 mph 1010.9mb 63f 66f
11:00am 2.5ft 4s 20 22 mph 1011.8mb 63f 64f
10:00am 2.5ft 4s 18 22 mph 1013.2mb 62f 62f
9:00am 2ft 3s 20 25 mph 1013.4mb 62f 62f
8:00am 2ft 3s 18 22 mph 1014.4mb 62f 60f
7:00am 2ft 4s 18 22 mph 1015.1mb 62f 59f
6:00am 2ft 3s 20 22 mph 1015.1mb 62f 59f
5:00am 1.6ft 3s 20 22 mph 1015.2mb 62f 58f
4:00am 1.3ft 3s 18 20 mph 1015.9mb 62f 57f
3:00am 1ft 2s 11 13 mph 1016.5mb 62f 58f
2:00am 1ft 3s 7 11 mph 1017.1mb 62f 55f
1:00am 1ft 3s 9 13 mph 1017.8mb 62f 55f
12:00am 1.3ft 3s 11 16 mph 1018.3mb 62f 54f
Fri 09/19 11:00pm 1.6ft 3s 13 16 mph 1018.9mb 62f 54f
10:00pm 1.6ft 3s 16 22 mph 1019.7mb 62f 52f
9:00pm 2ft 3s 18 22 mph 1020.3mb 63f 52f
7:00pm 1.6ft 3s 18 22 mph 1021.6mb 63f 54f
6:00pm 1.6ft 3s 18 20 mph 1021.8mb 63f 55f
5:00pm 1.3ft 3s 16 20 mph 1023.2mb 63f 56f
4:00pm 1.3ft 3s 13 18 mph 1023.6mb 63f 56f
3:00pm 1.6ft 3s 13 18 mph 1024.2mb 63f 56f
2:00pm 1.3ft 3s 13 18 mph 1024.6mb 63f 55f
1:00pm 1ft 2s 13 18 mph 1025.8mb 63f 54f
12:00pm 0.7ft 3s 11 16 mph 1027mb 63f 53f
11:00am 1ft 3s 7 13 mph 1027.8mb 63f 50f
10:00am 1.3ft 3s 11 16 mph 1028.2mb 63f 48f
9:00am 1.6ft 3s 11 16 mph 1028.7mb 63f 46f
8:00am 2ft 3s 16 20 mph 1028.5mb 62f 45f
7:00am 2ft 3s 18 22 mph 1028.1mb 63f 44f
6:00am 2ft 3s 18 22 mph 1027.9mb 63f 42f
5:00am 1.6ft 3s 20 25 mph 1027.1mb 63f 43f
4:00am 1.6ft 3s 18 22 mph 1027.1mb 63f 44f
3:00am 1.6ft 3s 16 20 mph 1026.9mb 63f 44f
2:00am 1.6ft 3s 16 20 mph 1026.7mb 63f 45f
1:00am 1.3ft 3s 18 22 mph 1026.5mb 63f 45f
12:00am 1.3ft 3s 16 20 mph 1025.8mb 63f 46f
Thu 09/18 11:00pm 1.3ft 3s 16 18 mph 1025.3mb 63f 48f
10:00pm 1.3ft 2s 18 22 mph 1024.8mb 63f 48f
9:00pm 1ft 2s 18 20 mph 1024.3mb 64f 49f
8:00pm 0.7ft 2s 13 18 mph 1023.5mb 64f 52f
7:00pm 0.3ft 2s 11 13 mph 1022.6mb 64f 53f
6:00pm 0.3ft 2s 9 13 mph 1022.3mb 64f 53f
5:00pm 0.3ft 2s 9 13 mph 1022.1mb 64f 54f
4:00pm 0.3ft 2s 9 13 mph 1022.1mb 64f 53f
3:00pm 0.7ft 2s 9 13 mph 1022.1mb 64f 53f
2:00pm 0.7ft 2s 9 13 mph 1022mb 64f 52f
1:00pm 0.7ft 2s 9 13 mph 1022mb 64f 51f
12:00pm 0.3ft 2s 9 13 mph 1021.9mb 64f 49f
11:00am 0.7ft 2s 9 13 mph 1021.7mb 64f 48f
10:00am 1ft 2s 11 16 mph 1021.8mb 64f 47f
9:00am 1ft 2s 13 16 mph 1021.6mb 64f 45f
8:00am 1ft 2s 13 18 mph 1020.9mb 64f 44f
7:00am 1ft 2s 16 20 mph 1020mb 64f 46f
6:00am 1ft 2s 13 18 mph 1019mb 64f 48f
5:00am 1ft 2s 16 20 mph 1017.9mb 64f 49f
4:00am 1ft 2s 13 18 mph 1017mb 64f 51f
3:00am 0.7ft 2s 13 18 mph 1016mb 64f 54f
2:00am  -   -  13
mph
- - -
1:00am 0.7ft 2s 11 13 mph 1015.3mb 64f 56f
12:00am 0.3ft 2s 11 13 mph 1014.7mb 64f 60f
Wed 09/17 11:00pm 0.3ft 2s 7 9 mph 1014.6mb 64f 59f
10:00pm 0.3ft 2s 7 9 mph 1014.5mb 64f 59f
9:00pm 0.3ft 2s 7 9 mph 1014.4mb 64f 60f
8:00pm 0.3ft 2s 7 9 mph 1014.4mb 64f 60f
7:00pm 0.3ft 2s 9 11 mph 1014mb 64f 62f